createdAt,value
2023-04-17T00:02:01.985Z,98146.00
2023-04-17T00:04:30.180Z,98152.00
2023-04-17T00:06:58.606Z,98148.00
2023-04-17T00:09:25.428Z,98148.00
2023-04-17T00:11:51.847Z,98138.00
2023-04-17T00:14:18.205Z,98131.00
2023-04-17T00:16:44.402Z,98139.00
2023-04-17T00:19:10.900Z,98132.00
2023-04-17T00:21:37.221Z,98145.00
2023-04-17T00:24:03.732Z,98128.00
2023-04-17T00:26:31.830Z,98147.00
2023-04-17T00:28:57.947Z,98154.00
2023-04-17T00:31:24.116Z,98142.00
2023-04-17T00:33:50.270Z,98142.00
2023-04-17T00:36:16.655Z,98141.00
2023-04-17T00:38:43.036Z,98133.00
2023-04-17T00:41:09.722Z,98136.00
2023-04-17T00:43:35.881Z,98138.00
2023-04-17T00:46:03.816Z,98145.00
2023-04-17T00:48:31.846Z,98128.00
2023-04-17T00:51:01.722Z,98141.00
2023-04-17T00:53:32.421Z,98125.00
2023-04-17T00:56:00.910Z,98145.00
2023-04-17T00:58:27.618Z,98137.00
2023-04-17T01:00:54.407Z,98134.00
2023-04-17T01:03:21.164Z,98127.00
2023-04-17T01:05:51.058Z,98143.00
2023-04-17T01:08:18.166Z,98139.00
2023-04-17T01:10:44.806Z,98129.00
2023-04-17T01:13:11.325Z,98148.00
2023-04-17T01:15:40.120Z,98144.00
2023-04-17T01:18:06.555Z,98131.00
2023-04-17T01:20:33.574Z,98142.00
2023-04-17T01:23:00.703Z,98125.00
2023-04-17T01:25:28.021Z,98150.00
2023-04-17T01:27:54.640Z,98149.00
2023-04-17T01:30:20.962Z,98151.00
2023-04-17T01:32:55.553Z,98141.00
2023-04-17T01:35:22.117Z,98143.00
2023-04-17T01:37:48.753Z,98146.00
2023-04-17T01:40:14.985Z,98140.00
2023-04-17T01:42:41.397Z,98134.00
2023-04-17T01:45:08.444Z,98141.00
2023-04-17T01:47:34.913Z,98148.00
2023-04-17T01:50:01.375Z,98142.00
2023-04-17T01:52:27.539Z,98142.00
2023-04-17T01:54:53.930Z,98139.00
2023-04-17T01:57:20.410Z,98150.00
2023-04-17T01:59:46.833Z,98141.00
2023-04-17T02:02:13.851Z,98144.00
2023-04-17T02:04:40.106Z,98130.00
2023-04-17T02:07:06.491Z,98139.00
2023-04-17T02:09:32.633Z,98145.00
2023-04-17T02:11:58.774Z,98143.00
2023-04-17T02:14:25.395Z,98143.00
2023-04-17T02:16:52.984Z,98143.00
2023-04-17T02:19:19.425Z,98122.00
2023-04-17T02:21:45.838Z,98141.00
2023-04-17T02:24:12.015Z,98141.00
2023-04-17T02:26:38.750Z,98122.00
2023-04-17T02:29:05.116Z,98136.00
2023-04-17T02:31:31.422Z,98134.00
2023-04-17T02:33:57.573Z,98146.00
2023-04-17T02:36:24.140Z,98129.00
2023-04-17T02:38:51.632Z,98129.00
2023-04-17T02:41:17.778Z,98128.00
2023-04-17T02:43:44.205Z,98122.00
2023-04-17T02:46:10.886Z,98124.00
2023-04-17T02:48:37.040Z,98129.00
2023-04-17T02:51:03.517Z,98128.00
2023-04-17T02:53:30.382Z,98128.00
2023-04-17T02:55:57.546Z,98135.00
2023-04-17T02:58:24.588Z,98134.00
2023-04-17T03:00:50.799Z,98134.00
2023-04-17T03:03:18.497Z,98125.00
2023-04-17T03:05:44.866Z,98138.00
2023-04-17T03:08:11.007Z,98138.00
2023-04-17T03:10:44.063Z,98125.00
2023-04-17T03:13:10.236Z,98126.00
2023-04-17T03:15:36.398Z,98150.00
2023-04-17T03:18:02.663Z,98150.00
2023-04-17T03:20:28.944Z,98130.00
2023-04-17T03:22:55.338Z,98147.00
2023-04-17T03:25:21.629Z,98131.00
2023-04-17T03:27:55.773Z,98135.00
2023-04-17T03:30:26.856Z,98150.00
2023-04-17T03:32:55.967Z,98145.00
2023-04-17T03:35:22.261Z,98153.00
2023-04-17T03:37:48.602Z,98159.00
2023-04-17T03:40:14.822Z,98139.00
2023-04-17T03:42:43.398Z,98140.00
2023-04-17T03:45:10.332Z,98143.00
2023-04-17T03:47:37.817Z,98147.00
2023-04-17T03:50:05.092Z,98156.00
2023-04-17T03:52:36.142Z,98167.00
2023-04-17T03:55:04.211Z,98144.00
2023-04-17T03:57:30.731Z,98157.00
2023-04-17T03:59:57.529Z,98159.00
2023-04-17T04:02:24.273Z,98164.00
2023-04-17T04:04:50.944Z,98149.00
2023-04-17T04:07:18.253Z,98159.00
2023-04-17T04:09:44.587Z,98156.00
2023-04-17T04:12:10.770Z,98159.00
2023-04-17T04:14:41.862Z,98155.00
2023-04-17T04:17:09.215Z,98156.00
2023-04-17T04:19:35.546Z,98153.00
2023-04-17T04:22:02.249Z,98165.00
2023-04-17T04:24:37.627Z,98157.00
2023-04-17T04:27:04.296Z,98163.00
2023-04-17T04:29:33.075Z,98165.00
2023-04-17T04:32:03.299Z,98158.00
2023-04-17T04:34:35.862Z,98163.00
2023-04-17T04:37:02.346Z,98157.00
2023-04-17T04:39:53.410Z,98166.00
2023-04-17T04:42:21.445Z,98169.00
2023-04-17T04:45:06.451Z,98174.00
2023-04-17T04:47:34.264Z,98176.00
2023-04-17T04:50:00.784Z,98170.00
2023-04-17T04:52:27.192Z,98173.00
2023-04-17T04:54:57.052Z,98176.00
2023-04-17T04:57:24.634Z,98174.00
2023-04-17T04:59:54.391Z,98180.00
2023-04-17T05:02:29.027Z,98187.00
2023-04-17T05:04:55.655Z,98168.00
2023-04-17T05:07:22.549Z,98185.00
2023-04-17T05:09:49.697Z,98187.00
2023-04-17T05:12:16.498Z,98177.00
2023-04-17T05:14:43.970Z,98182.00
2023-04-17T05:17:10.238Z,98174.00
2023-04-17T05:19:36.400Z,98194.00
2023-04-17T05:22:05.077Z,98190.00
2023-04-17T05:24:35.398Z,98194.00
2023-04-17T05:27:02.456Z,98181.00
2023-04-17T05:29:29.587Z,98190.00
2023-04-17T05:31:57.553Z,98202.00
2023-04-17T05:34:56.691Z,98197.00
2023-04-17T05:37:26.145Z,98200.00
2023-04-17T05:39:52.557Z,98206.00
2023-04-17T05:42:18.914Z,98212.00
2023-04-17T05:44:45.815Z,98201.00
2023-04-17T05:47:12.117Z,98206.00
2023-04-17T05:49:38.628Z,98213.00
2023-04-17T05:52:04.952Z,98182.00
2023-04-17T05:54:33.957Z,98197.00
2023-04-17T05:57:00.449Z,98200.00
2023-04-17T05:59:27.006Z,98191.00
2023-04-17T06:01:53.599Z,98208.00
2023-04-17T06:04:22.052Z,98202.00
2023-04-17T06:06:49.848Z,98206.00
2023-04-17T06:09:16.553Z,98200.00
2023-04-17T06:11:42.759Z,98192.00
2023-04-17T06:14:09.386Z,98204.00
2023-04-17T06:16:36.352Z,98210.00
2023-04-17T06:19:02.756Z,98208.00
2023-04-17T06:21:29.033Z,98223.00
2023-04-17T06:23:55.195Z,98212.00
2023-04-17T06:26:21.589Z,98211.00
2023-04-17T06:28:49.501Z,98220.00
2023-04-17T06:31:16.007Z,98221.00
2023-04-17T06:33:42.858Z,98206.00
2023-04-17T06:36:09.503Z,98208.00
2023-04-17T06:38:42.909Z,98225.00
2023-04-17T06:41:09.119Z,98223.00
2023-04-17T06:43:37.184Z,98222.00
2023-04-17T06:46:12.436Z,98228.00
2023-04-17T06:48:38.580Z,98216.00
2023-04-17T06:51:04.771Z,98232.00
2023-04-17T06:53:30.932Z,98246.00
2023-04-17T06:55:57.140Z,98230.00
2023-04-17T06:58:23.300Z,98231.00
2023-04-17T07:00:49.534Z,98237.00
2023-04-17T07:03:15.852Z,98243.00
2023-04-17T07:05:44.260Z,98252.00
2023-04-17T07:08:10.511Z,98245.00
2023-04-17T07:10:36.918Z,98243.00
2023-04-17T07:13:03.315Z,98252.00
2023-04-17T07:15:30.639Z,98238.00
2023-04-17T07:17:57.252Z,98261.00
2023-04-17T07:20:23.741Z,98270.00
2023-04-17T07:22:50.258Z,98270.00
2023-04-17T07:25:16.683Z,98261.00
2023-04-17T07:27:42.929Z,98266.00
2023-04-17T07:30:09.677Z,98281.00
2023-04-17T07:32:36.203Z,98274.00
2023-04-17T07:35:03.840Z,98281.00
2023-04-17T07:37:30.384Z,98291.00
2023-04-17T07:39:56.616Z,98279.00
2023-04-17T07:42:25.737Z,98285.00
2023-04-17T07:44:52.095Z,98273.00
2023-04-17T07:47:18.627Z,98279.00
2023-04-17T07:49:48.233Z,98279.00
2023-04-17T07:52:16.896Z,98265.00
2023-04-17T07:54:43.963Z,98279.00
2023-04-17T07:57:10.778Z,98290.00
2023-04-17T07:59:37.159Z,98281.00
2023-04-17T08:02:03.693Z,98294.00
2023-04-17T08:04:30.369Z,98294.00
2023-04-17T08:06:56.672Z,98299.00
2023-04-17T08:09:23.068Z,98289.00
2023-04-17T08:11:57.159Z,98298.00
2023-04-17T08:14:24.433Z,98294.00
2023-04-17T08:16:50.655Z,98294.00
2023-04-17T08:19:17.083Z,98297.00
2023-04-17T08:21:43.306Z,98305.00
2023-04-17T08:24:09.843Z,98304.00
2023-04-17T08:26:36.231Z,98307.00
2023-04-17T08:29:03.779Z,98305.00
2023-04-17T08:31:30.602Z,98294.00
2023-04-17T08:34:10.394Z,98283.00
2023-04-17T08:36:40.547Z,98305.00
2023-04-17T08:39:08.879Z,98304.00
2023-04-17T08:41:46.829Z,98310.00
2023-04-17T08:44:19.810Z,98316.00
2023-04-17T08:46:46.906Z,98311.00
2023-04-17T08:49:13.800Z,98291.00
2023-04-17T08:51:41.407Z,98294.00
2023-04-17T08:54:08.018Z,98306.00
2023-04-17T08:56:34.179Z,98319.00
2023-04-17T08:59:00.309Z,98304.00
2023-04-17T09:01:27.790Z,98296.00
2023-04-17T09:03:55.436Z,98299.00
2023-04-17T09:06:22.071Z,98307.00
2023-04-17T09:09:02.130Z,98308.00
2023-04-17T09:11:28.700Z,98294.00
2023-04-17T09:13:54.935Z,98325.00
2023-04-17T09:16:23.705Z,98309.00
2023-04-17T09:18:50.175Z,98306.00
2023-04-17T09:21:19.536Z,98329.00
2023-04-17T09:23:58.360Z,98312.00
2023-04-17T09:26:27.554Z,98311.00
2023-04-17T09:29:14.203Z,98336.00
2023-04-17T09:31:42.849Z,98328.00
2023-04-17T09:34:11.732Z,98319.00
2023-04-17T09:36:41.125Z,98329.00
2023-04-17T09:39:25.399Z,98324.00
2023-04-17T09:42:03.964Z,98313.00
2023-04-17T09:44:30.566Z,98330.00
2023-04-17T09:46:56.875Z,98317.00
2023-04-17T09:49:53.833Z,98331.00
2023-04-17T09:52:23.990Z,98322.00
2023-04-17T09:54:52.884Z,98319.00
2023-04-17T09:57:20.486Z,98332.00
2023-04-17T09:59:49.523Z,98322.00
2023-04-17T10:02:19.095Z,98319.00
2023-04-17T10:04:46.872Z,98322.00
2023-04-17T10:07:13.823Z,98321.00
2023-04-17T10:09:44.883Z,98313.00
2023-04-17T10:12:17.762Z,98316.00
2023-04-17T10:14:47.920Z,98303.00
2023-04-17T10:17:30.924Z,98308.00
2023-04-17T10:20:17.298Z,98319.00
2023-04-17T10:22:44.378Z,98308.00
2023-04-17T10:25:13.388Z,98308.00
2023-04-17T10:27:39.791Z,98309.00
2023-04-17T10:30:12.300Z,98309.00
2023-04-17T10:33:03.075Z,98300.00
2023-04-17T10:35:33.211Z,98291.00
2023-04-17T10:38:05.832Z,98299.00
2023-04-17T10:40:37.509Z,98306.00
2023-04-17T10:43:06.415Z,98297.00
2023-04-17T10:46:04.521Z,98298.00
2023-04-17T10:48:48.755Z,98311.00
2023-04-17T10:51:21.184Z,98291.00
2023-04-17T10:53:50.796Z,98294.00
2023-04-17T10:56:31.960Z,98311.00
2023-04-17T10:59:01.284Z,98282.00
2023-04-17T11:01:56.985Z,98292.00
2023-04-17T11:04:31.626Z,98291.00
2023-04-17T11:06:58.060Z,98285.00
2023-04-17T11:09:27.543Z,98294.00
2023-04-17T11:11:54.410Z,98289.00
2023-04-17T11:14:22.811Z,98287.00
2023-04-17T11:16:51.084Z,98284.00
2023-04-17T11:19:22.648Z,98302.00
2023-04-17T11:21:51.834Z,98287.00
2023-04-17T11:24:29.814Z,98282.00
2023-04-17T11:26:59.984Z,98293.00
2023-04-17T11:29:27.206Z,98278.00
2023-04-17T11:31:56.580Z,98286.00
2023-04-17T11:34:25.095Z,98285.00
2023-04-17T11:36:59.736Z,98287.00
2023-04-17T11:39:29.358Z,98288.00
2023-04-17T11:41:58.055Z,98263.00
2023-04-17T11:44:25.522Z,98281.00
2023-04-17T11:46:58.114Z,98292.00
2023-04-17T11:49:32.422Z,98274.00
2023-04-17T11:52:04.704Z,98278.00
2023-04-17T11:54:40.555Z,98270.00
2023-04-17T11:57:12.858Z,98290.00
2023-04-17T11:59:41.599Z,98283.00
2023-04-17T12:02:08.945Z,98281.00
2023-04-17T12:04:37.278Z,98288.00
2023-04-17T12:07:05.595Z,98275.00
2023-04-17T12:09:34.406Z,98273.00
2023-04-17T12:12:04.172Z,98294.00
2023-04-17T12:14:31.544Z,98271.00
2023-04-17T12:16:59.115Z,98285.00
2023-04-17T12:19:28.403Z,98283.00
2023-04-17T12:21:55.049Z,98284.00
2023-04-17T12:24:23.406Z,98278.00
2023-04-17T12:26:50.914Z,98288.00
2023-04-17T12:29:17.810Z,98272.00
2023-04-17T12:31:44.992Z,98287.00
2023-04-17T12:34:11.648Z,98278.00
2023-04-17T12:36:38.499Z,98270.00
2023-04-17T12:39:05.163Z,98281.00
2023-04-17T12:41:31.340Z,98273.00
2023-04-17T12:44:00.838Z,98253.00
2023-04-17T12:46:27.124Z,98273.00
2023-04-17T12:48:58.653Z,98282.00
2023-04-17T12:51:27.250Z,98284.00
2023-04-17T12:53:57.361Z,98289.00
2023-04-17T12:56:23.704Z,98273.00
2023-04-17T12:58:50.514Z,98274.00
2023-04-17T13:01:16.722Z,98274.00
2023-04-17T13:03:43.240Z,98274.00
2023-04-17T13:06:12.883Z,98269.00
2023-04-17T13:08:39.690Z,98269.00
2023-04-17T13:11:06.136Z,98251.00
2023-04-17T13:13:32.315Z,98272.00
2023-04-17T13:15:58.530Z,98274.00
2023-04-17T13:18:25.638Z,98267.00
2023-04-17T13:20:52.056Z,98267.00
2023-04-17T13:23:18.204Z,98271.00
2023-04-17T13:25:44.672Z,98263.00
2023-04-17T13:28:10.937Z,98265.00
2023-04-17T13:30:37.432Z,98284.00
2023-04-17T13:33:03.882Z,98274.00
2023-04-17T13:35:30.291Z,98275.00
2023-04-17T13:38:00.115Z,98280.00
2023-04-17T13:40:26.395Z,98264.00
2023-04-17T13:42:52.633Z,98281.00
2023-04-17T13:45:18.838Z,98273.00
2023-04-17T13:47:45.304Z,98282.00
2023-04-17T13:50:11.832Z,98270.00
2023-04-17T13:52:38.140Z,98268.00
2023-04-17T13:55:06.957Z,98260.00
2023-04-17T13:57:33.332Z,98263.00
2023-04-17T13:59:59.694Z,98264.00
2023-04-17T14:02:26.234Z,98273.00
2023-04-17T14:04:52.959Z,98270.00
2023-04-17T14:07:21.585Z,98267.00
2023-04-17T14:09:47.766Z,98263.00
2023-04-17T14:12:19.019Z,98266.00
2023-04-17T14:14:46.057Z,98270.00
2023-04-17T14:17:12.386Z,98267.00
2023-04-17T14:19:38.580Z,98266.00
2023-04-17T14:22:04.759Z,98267.00
2023-04-17T14:24:30.991Z,98265.00
2023-04-17T14:26:57.145Z,98265.00
2023-04-17T14:29:23.384Z,98255.00
2023-04-17T14:31:50.479Z,98265.00
2023-04-17T14:34:16.751Z,98261.00
2023-04-17T14:36:43.729Z,98261.00
2023-04-17T14:39:10.379Z,98269.00
2023-04-17T14:41:36.950Z,98246.00
2023-04-17T14:44:03.327Z,98238.00
2023-04-17T14:46:30.415Z,98241.00
2023-04-17T14:48:56.800Z,98248.00
2023-04-17T14:51:23.815Z,98244.00
2023-04-17T14:53:50.935Z,98243.00
2023-04-17T14:56:17.465Z,98232.00
2023-04-17T14:58:43.712Z,98243.00
2023-04-17T15:01:10.625Z,98238.00
2023-04-17T15:03:37.130Z,98232.00
2023-04-17T15:06:03.646Z,98241.00
2023-04-17T15:08:30.459Z,98241.00
2023-04-17T15:10:57.991Z,98240.00
2023-04-17T15:13:24.368Z,98257.00
2023-04-17T15:15:50.622Z,98252.00
2023-04-17T15:18:16.815Z,98247.00
2023-04-17T15:20:42.971Z,98259.00
2023-04-17T15:23:09.170Z,98238.00
2023-04-17T15:25:35.724Z,98252.00
2023-04-17T15:28:01.866Z,98253.00
2023-04-17T15:30:28.137Z,98243.00
2023-04-17T15:32:54.419Z,98245.00
2023-04-17T15:35:20.809Z,98249.00
2023-04-17T15:37:47.759Z,98245.00
2023-04-17T15:40:15.789Z,98249.00
2023-04-17T15:42:42.009Z,98257.00
2023-04-17T15:45:09.234Z,98254.00
2023-04-17T15:47:35.618Z,98266.00
2023-04-17T15:50:01.975Z,98260.00
2023-04-17T15:52:28.424Z,98255.00
2023-04-17T15:54:54.704Z,98255.00
2023-04-17T15:57:21.234Z,98262.00
2023-04-17T15:59:47.945Z,98239.00
2023-04-17T16:02:14.507Z,98262.00
2023-04-17T16:04:42.794Z,98263.00
2023-04-17T16:07:11.247Z,98259.00
2023-04-17T16:09:39.088Z,98250.00
2023-04-17T16:12:09.986Z,98244.00
2023-04-17T16:14:36.950Z,98241.00
2023-04-17T16:17:03.637Z,98247.00
2023-04-17T16:19:30.711Z,98234.00
2023-04-17T16:21:57.469Z,98241.00
2023-04-17T16:24:24.884Z,98239.00
2023-04-17T16:27:00.248Z,98255.00
2023-04-17T16:29:27.102Z,98244.00
2023-04-17T16:31:54.823Z,98245.00
2023-04-17T16:34:21.486Z,98251.00
2023-04-17T16:36:48.719Z,98235.00
2023-04-17T16:39:15.201Z,98254.00
2023-04-17T16:41:41.654Z,98254.00
2023-04-17T16:44:07.861Z,98241.00
2023-04-17T16:46:55.257Z,98236.00
2023-04-17T16:49:21.149Z,98252.00
2023-04-17T16:51:47.425Z,98233.00
2023-04-17T16:54:13.764Z,98236.00
2023-04-17T16:56:41.149Z,98244.00
2023-04-17T16:59:07.426Z,98233.00
2023-04-17T17:01:33.661Z,98239.00
2023-04-17T17:03:59.924Z,98246.00
2023-04-17T17:06:26.475Z,98235.00
2023-04-17T17:08:55.026Z,98245.00
2023-04-17T17:11:22.845Z,98249.00
2023-04-17T17:13:49.898Z,98253.00
2023-04-17T17:16:18.631Z,98239.00
2023-04-17T17:18:46.113Z,98246.00
2023-04-17T17:21:12.716Z,98240.00
2023-04-17T17:23:39.213Z,98249.00
2023-04-17T17:26:05.963Z,98254.00
2023-04-17T17:28:34.414Z,98254.00
2023-04-17T17:31:09.082Z,98245.00
2023-04-17T17:33:36.041Z,98260.00
2023-04-17T17:36:03.047Z,98258.00
2023-04-17T17:38:31.610Z,98241.00
2023-04-17T17:40:57.966Z,98252.00
2023-04-17T17:43:24.378Z,98250.00
2023-04-17T17:45:51.791Z,98245.00
2023-04-17T17:48:19.563Z,98203.00
2023-04-17T17:50:46.287Z,98255.00
2023-04-17T17:53:12.756Z,98253.00
2023-04-17T17:55:39.260Z,98254.00
2023-04-17T17:58:09.114Z,98256.00
2023-04-17T18:00:35.387Z,98251.00
2023-04-17T18:03:01.741Z,98244.00
2023-04-17T18:05:28.218Z,98251.00
2023-04-17T18:07:54.627Z,98254.00
2023-04-17T18:10:21.112Z,98263.00
2023-04-17T18:12:48.369Z,98263.00
2023-04-17T18:15:14.645Z,98265.00
2023-04-17T18:17:40.878Z,98256.00
2023-04-17T18:20:08.055Z,98267.00
2023-04-17T18:22:34.574Z,98248.00
2023-04-17T18:25:00.887Z,98267.00
2023-04-17T18:27:27.093Z,98260.00
2023-04-17T18:29:53.282Z,98269.00
2023-04-17T18:32:19.469Z,98253.00
2023-04-17T18:34:48.370Z,98273.00
2023-04-17T18:37:16.708Z,98262.00
2023-04-17T18:39:44.472Z,98270.00
2023-04-17T18:42:10.960Z,98282.00
2023-04-17T18:44:37.193Z,98284.00
2023-04-17T18:47:03.752Z,98270.00
2023-04-17T18:49:30.115Z,98279.00
2023-04-17T18:51:56.320Z,98274.00
2023-04-17T18:54:23.459Z,98284.00
2023-04-17T18:56:49.890Z,98291.00
2023-04-17T18:59:16.201Z,98293.00
2023-04-17T19:01:42.470Z,98300.00
2023-04-17T19:04:08.881Z,98290.00
2023-04-17T19:06:35.183Z,98273.00
2023-04-17T19:09:01.486Z,98274.00
2023-04-17T19:11:28.265Z,98288.00
2023-04-17T19:13:54.696Z,98279.00
2023-04-17T19:16:21.240Z,98281.00
2023-04-17T19:18:47.749Z,98290.00
2023-04-17T19:21:15.357Z,98272.00
2023-04-17T19:23:41.533Z,98279.00
2023-04-17T19:26:08.544Z,98275.00
2023-04-17T19:28:35.648Z,98292.00
2023-04-17T19:31:02.700Z,98280.00
2023-04-17T19:33:29.114Z,98285.00
2023-04-17T19:35:57.495Z,98278.00
2023-04-17T19:38:25.234Z,98285.00
2023-04-17T19:41:13.778Z,98281.00
2023-04-17T19:43:53.512Z,98270.00
2023-04-17T19:46:22.292Z,98282.00
2023-04-17T19:48:50.223Z,98269.00
2023-04-17T19:51:16.712Z,98282.00
2023-04-17T19:53:46.623Z,98273.00
2023-04-17T19:56:13.644Z,98280.00
2023-04-17T19:58:41.201Z,98265.00
2023-04-17T20:01:07.569Z,98263.00
2023-04-17T20:03:34.765Z,98275.00
2023-04-17T20:06:02.925Z,98272.00
2023-04-17T20:08:29.131Z,98281.00
2023-04-17T20:10:55.483Z,98263.00
2023-04-17T20:13:24.072Z,98282.00
2023-04-17T20:15:50.603Z,98289.00
2023-04-17T20:18:17.485Z,98264.00
2023-04-17T20:20:43.856Z,98264.00
2023-04-17T20:23:10.874Z,98274.00
2023-04-17T20:25:37.147Z,98270.00
2023-04-17T20:28:03.953Z,98289.00
2023-04-17T20:30:30.466Z,98287.00
2023-04-17T20:32:57.204Z,98273.00
2023-04-17T20:35:24.006Z,98287.00
2023-04-17T20:37:51.320Z,98282.00
2023-04-17T20:40:18.032Z,98273.00
2023-04-17T20:42:45.224Z,98283.00
2023-04-17T20:45:11.708Z,98273.00
2023-04-17T20:47:46.223Z,98264.00
2023-04-17T20:50:21.618Z,98288.00
2023-04-17T20:52:47.816Z,98295.00
2023-04-17T20:55:14.507Z,98282.00
2023-04-17T20:57:40.954Z,98281.00
2023-04-17T21:00:08.313Z,98274.00
2023-04-17T21:02:34.600Z,98270.00
2023-04-17T21:05:00.811Z,98294.00
2023-04-17T21:07:27.080Z,98278.00
2023-04-17T21:09:53.383Z,98285.00
2023-04-17T21:12:19.831Z,98285.00
2023-04-17T21:14:46.020Z,98275.00
2023-04-17T21:17:12.219Z,98273.00
2023-04-17T21:19:39.550Z,98280.00
2023-04-17T21:22:05.763Z,98284.00
2023-04-17T21:24:33.408Z,98283.00
2023-04-17T21:27:00.646Z,98268.00
2023-04-17T21:29:27.989Z,98263.00
2023-04-17T21:31:56.041Z,98270.00
2023-04-17T21:34:23.919Z,98270.00
2023-04-17T21:36:54.812Z,98283.00
2023-04-17T21:39:21.580Z,98270.00
2023-04-17T21:41:47.962Z,98271.00
2023-04-17T21:44:14.833Z,98270.00
2023-04-17T21:46:45.224Z,98269.00
2023-04-17T21:49:11.675Z,98271.00
2023-04-17T21:51:37.996Z,98267.00
2023-04-17T21:54:04.267Z,98273.00
2023-04-17T21:56:30.889Z,98267.00
2023-04-17T21:58:57.074Z,98263.00
2023-04-17T22:01:23.241Z,98271.00
2023-04-17T22:03:49.606Z,98273.00
2023-04-17T22:06:15.771Z,98283.00
2023-04-17T22:08:41.954Z,98267.00
2023-04-17T22:11:08.208Z,98262.00
2023-04-17T22:13:34.399Z,98269.00
2023-04-17T22:16:01.573Z,98270.00
2023-04-17T22:18:27.837Z,98267.00
2023-04-17T22:20:53.997Z,98269.00
2023-04-17T22:23:20.499Z,98282.00
2023-04-17T22:25:46.696Z,98272.00
2023-04-17T22:28:12.858Z,98260.00
2023-04-17T22:30:39.422Z,98264.00
2023-04-17T22:33:05.677Z,98274.00
2023-04-17T22:35:32.092Z,98286.00
2023-04-17T22:37:58.293Z,98279.00
2023-04-17T22:40:24.598Z,98284.00
2023-04-17T22:42:51.051Z,98279.00
2023-04-17T22:45:17.454Z,98274.00
2023-04-17T22:47:43.619Z,98282.00
2023-04-17T22:50:10.108Z,98295.00
2023-04-17T22:52:36.467Z,98280.00
2023-04-17T22:55:03.444Z,98273.00
2023-04-17T22:57:29.723Z,98283.00
2023-04-17T22:59:55.918Z,98275.00
2023-04-17T23:02:22.255Z,98288.00
2023-04-17T23:04:48.579Z,98278.00
2023-04-17T23:07:14.790Z,98279.00
2023-04-17T23:09:41.040Z,98263.00
2023-04-17T23:12:07.221Z,98280.00
2023-04-17T23:14:33.390Z,98268.00
2023-04-17T23:16:59.573Z,98271.00
2023-04-17T23:19:26.658Z,98279.00
2023-04-17T23:21:52.800Z,98268.00
2023-04-17T23:24:18.983Z,98266.00
2023-04-17T23:26:47.964Z,98265.00
2023-04-17T23:29:14.231Z,98262.00
2023-04-17T23:31:42.051Z,98270.00
2023-04-17T23:34:08.244Z,98262.00
2023-04-17T23:36:34.612Z,98268.00
2023-04-17T23:39:00.780Z,98266.00
2023-04-17T23:41:27.234Z,98263.00
2023-04-17T23:43:55.534Z,98256.00
2023-04-17T23:46:21.971Z,98270.00
2023-04-17T23:48:48.224Z,98285.00
2023-04-17T23:51:14.399Z,98264.00
2023-04-17T23:53:40.592Z,98257.00
2023-04-17T23:56:06.904Z,98256.00
2023-04-17T23:58:33.343Z,98264.00
